sensor_id;sensor_type;location;lat;lon;timestamp;P1;durP1;ratioP1;P2;durP2;ratioP2
37903;SDS011;23738;50.422;18.758;2023-04-05T00:02:25;106.20;;;42.50;;
37903;SDS011;23738;50.422;18.758;2023-04-05T00:04:54;96.10;;;38.70;;
37903;SDS011;23738;50.422;18.758;2023-04-05T00:07:23;109.70;;;44.20;;
37903;SDS011;23738;50.422;18.758;2023-04-05T00:09:51;113.00;;;44.80;;
37903;SDS011;23738;50.422;18.758;2023-04-05T00:12:18;119.90;;;44.40;;
37903;SDS011;23738;50.422;18.758;2023-04-05T00:14:46;114.20;;;47.80;;
37903;SDS011;23738;50.422;18.758;2023-04-05T00:17:13;115.00;;;48.00;;
37903;SDS011;23738;50.422;18.758;2023-04-05T00:19:40;116.50;;;46.80;;
37903;SDS011;23738;50.422;18.758;2023-04-05T00:22:08;106.50;;;45.70;;
37903;SDS011;23738;50.422;18.758;2023-04-05T00:24:35;115.40;;;45.50;;
37903;SDS011;23738;50.422;18.758;2023-04-05T00:27:06;107.90;;;44.70;;
37903;SDS011;23738;50.422;18.758;2023-04-05T00:29:34;108.10;;;44.10;;
37903;SDS011;23738;50.422;18.758;2023-04-05T00:32:01;105.00;;;43.10;;
37903;SDS011;23738;50.422;18.758;2023-04-05T00:34:29;95.90;;;40.50;;
37903;SDS011;23738;50.422;18.758;2023-04-05T00:36:58;88.50;;;38.70;;
37903;SDS011;23738;50.422;18.758;2023-04-05T00:39:25;88.40;;;36.80;;
37903;SDS011;23738;50.422;18.758;2023-04-05T00:41:53;88.70;;;35.80;;
37903;SDS011;23738;50.422;18.758;2023-04-05T00:44:21;79.50;;;33.80;;
37903;SDS011;23738;50.422;18.758;2023-04-05T00:46:48;77.40;;;32.30;;
37903;SDS011;23738;50.422;18.758;2023-04-05T00:49:16;72.80;;;31.80;;
37903;SDS011;23738;50.422;18.758;2023-04-05T00:51:43;68.90;;;30.60;;
37903;SDS011;23738;50.422;18.758;2023-04-05T00:54:12;74.90;;;30.90;;
37903;SDS011;23738;50.422;18.758;2023-04-05T00:56:40;74.20;;;31.70;;
37903;SDS011;23738;50.422;18.758;2023-04-05T00:59:07;81.00;;;33.50;;
37903;SDS011;23738;50.422;18.758;2023-04-05T01:01:35;87.90;;;35.40;;
37903;SDS011;23738;50.422;18.758;2023-04-05T01:04:05;94.30;;;34.20;;
37903;SDS011;23738;50.422;18.758;2023-04-05T01:06:39;83.20;;;32.90;;
37903;SDS011;23738;50.422;18.758;2023-04-05T01:09:20;88.70;;;34.60;;
37903;SDS011;23738;50.422;18.758;2023-04-05T01:12:00;83.00;;;36.70;;
37903;SDS011;23738;50.422;18.758;2023-04-05T01:14:31;103.10;;;42.50;;
37903;SDS011;23738;50.422;18.758;2023-04-05T01:16:58;99.00;;;41.70;;
37903;SDS011;23738;50.422;18.758;2023-04-05T01:19:27;88.90;;;37.70;;
37903;SDS011;23738;50.422;18.758;2023-04-05T01:22:00;99.70;;;42.30;;
37903;SDS011;23738;50.422;18.758;2023-04-05T01:24:50;97.10;;;39.90;;
37903;SDS011;23738;50.422;18.758;2023-04-05T01:27:35;93.60;;;38.00;;
37903;SDS011;23738;50.422;18.758;2023-04-05T01:30:20;85.30;;;36.20;;
37903;SDS011;23738;50.422;18.758;2023-04-05T01:32:58;84.50;;;34.90;;
37903;SDS011;23738;50.422;18.758;2023-04-05T01:35:34;86.30;;;35.90;;
37903;SDS011;23738;50.422;18.758;2023-04-05T01:38:10;81.20;;;37.00;;
37903;SDS011;23738;50.422;18.758;2023-04-05T01:40:42;78.40;;;34.90;;
37903;SDS011;23738;50.422;18.758;2023-04-05T01:43:13;87.10;;;38.00;;
37903;SDS011;23738;50.422;18.758;2023-04-05T01:45:40;86.00;;;36.40;;
37903;SDS011;23738;50.422;18.758;2023-04-05T01:48:08;82.90;;;34.10;;
37903;SDS011;23738;50.422;18.758;2023-04-05T01:50:36;79.40;;;35.20;;
37903;SDS011;23738;50.422;18.758;2023-04-05T01:53:05;99.70;;;39.80;;
37903;SDS011;23738;50.422;18.758;2023-04-05T01:55:33;90.40;;;39.30;;
37903;SDS011;23738;50.422;18.758;2023-04-05T01:58:00;102.70;;;43.90;;
37903;SDS011;23738;50.422;18.758;2023-04-05T02:00:27;100.60;;;42.70;;
37903;SDS011;23738;50.422;18.758;2023-04-05T02:02:55;104.20;;;45.40;;
37903;SDS011;23738;50.422;18.758;2023-04-05T02:05:22;114.30;;;48.90;;
37903;SDS011;23738;50.422;18.758;2023-04-05T02:07:50;104.60;;;44.20;;
37903;SDS011;23738;50.422;18.758;2023-04-05T02:10:17;107.00;;;43.90;;
37903;SDS011;23738;50.422;18.758;2023-04-05T02:12:45;109.90;;;46.80;;
37903;SDS011;23738;50.422;18.758;2023-04-05T02:15:12;118.80;;;50.90;;
37903;SDS011;23738;50.422;18.758;2023-04-05T02:17:40;134.30;;;54.40;;
37903;SDS011;23738;50.422;18.758;2023-04-05T02:20:11;121.60;;;49.80;;
37903;SDS011;23738;50.422;18.758;2023-04-05T02:22:39;124.30;;;50.40;;
37903;SDS011;23738;50.422;18.758;2023-04-05T02:25:07;117.00;;;49.00;;
37903;SDS011;23738;50.422;18.758;2023-04-05T02:27:36;122.70;;;49.50;;
37903;SDS011;23738;50.422;18.758;2023-04-05T02:30:05;123.00;;;49.40;;
37903;SDS011;23738;50.422;18.758;2023-04-05T02:32:33;128.30;;;52.70;;
37903;SDS011;23738;50.422;18.758;2023-04-05T02:35:00;127.90;;;53.00;;
37903;SDS011;23738;50.422;18.758;2023-04-05T02:37:28;127.20;;;52.50;;
37903;SDS011;23738;50.422;18.758;2023-04-05T02:39:55;128.80;;;52.60;;
37903;SDS011;23738;50.422;18.758;2023-04-05T02:42:23;127.00;;;51.60;;
37903;SDS011;23738;50.422;18.758;2023-04-05T02:44:50;126.70;;;52.50;;
37903;SDS011;23738;50.422;18.758;2023-04-05T02:47:18;123.10;;;49.90;;
37903;SDS011;23738;50.422;18.758;2023-04-05T02:49:46;113.60;;;48.80;;
37903;SDS011;23738;50.422;18.758;2023-04-05T02:52:13;116.30;;;47.80;;
37903;SDS011;23738;50.422;18.758;2023-04-05T02:54:41;115.00;;;49.20;;
37903;SDS011;23738;50.422;18.758;2023-04-05T02:57:08;115.40;;;47.40;;
37903;SDS011;23738;50.422;18.758;2023-04-05T02:59:36;119.90;;;48.50;;
37903;SDS011;23738;50.422;18.758;2023-04-05T03:02:04;116.70;;;45.70;;
37903;SDS011;23738;50.422;18.758;2023-04-05T03:04:32;111.80;;;44.20;;
37903;SDS011;23738;50.422;18.758;2023-04-05T03:06:59;111.30;;;43.50;;
37903;SDS011;23738;50.422;18.758;2023-04-05T03:09:27;116.10;;;43.80;;
37903;SDS011;23738;50.422;18.758;2023-04-05T03:11:58;109.10;;;42.50;;
37903;SDS011;23738;50.422;18.758;2023-04-05T03:14:26;110.50;;;43.10;;
37903;SDS011;23738;50.422;18.758;2023-04-05T03:16:53;99.60;;;43.20;;
37903;SDS011;23738;50.422;18.758;2023-04-05T03:19:21;101.00;;;41.00;;
37903;SDS011;23738;50.422;18.758;2023-04-05T03:21:48;108.00;;;43.10;;
37903;SDS011;23738;50.422;18.758;2023-04-05T03:24:16;102.60;;;41.70;;
37903;SDS011;23738;50.422;18.758;2023-04-05T03:26:44;103.40;;;42.70;;
37903;SDS011;23738;50.422;18.758;2023-04-05T03:29:11;103.10;;;43.50;;
37903;SDS011;23738;50.422;18.758;2023-04-05T03:31:39;100.40;;;43.00;;
37903;SDS011;23738;50.422;18.758;2023-04-05T03:34:06;102.10;;;41.90;;
37903;SDS011;23738;50.422;18.758;2023-04-05T03:36:34;100.30;;;42.10;;
37903;SDS011;23738;50.422;18.758;2023-04-05T03:39:06;94.00;;;42.20;;
37903;SDS011;23738;50.422;18.758;2023-04-05T03:41:34;101.40;;;42.70;;
37903;SDS011;23738;50.422;18.758;2023-04-05T03:44:02;99.50;;;41.70;;
37903;SDS011;23738;50.422;18.758;2023-04-05T03:46:29;98.80;;;42.00;;
37903;SDS011;23738;50.422;18.758;2023-04-05T03:48:57;110.40;;;44.70;;
37903;SDS011;23738;50.422;18.758;2023-04-05T03:51:26;214.50;;;63.50;;
37903;SDS011;23738;50.422;18.758;2023-04-05T03:53:53;189.30;;;58.00;;
37903;SDS011;23738;50.422;18.758;2023-04-05T03:56:21;160.20;;;53.40;;
37903;SDS011;23738;50.422;18.758;2023-04-05T03:58:48;155.10;;;52.30;;
37903;SDS011;23738;50.422;18.758;2023-04-05T04:01:17;167.30;;;52.90;;
37903;SDS011;23738;50.422;18.758;2023-04-05T04:03:44;129.90;;;48.10;;
37903;SDS011;23738;50.422;18.758;2023-04-05T04:06:11;135.40;;;48.70;;
37903;SDS011;23738;50.422;18.758;2023-04-05T04:08:39;126.50;;;46.80;;
37903;SDS011;23738;50.422;18.758;2023-04-05T04:11:06;113.40;;;44.50;;
37903;SDS011;23738;50.422;18.758;2023-04-05T04:13:33;117.70;;;45.30;;
37903;SDS011;23738;50.422;18.758;2023-04-05T04:16:00;122.90;;;44.30;;
37903;SDS011;23738;50.422;18.758;2023-04-05T04:18:28;118.30;;;49.50;;
37903;SDS011;23738;50.422;18.758;2023-04-05T04:20:56;116.80;;;48.80;;
37903;SDS011;23738;50.422;18.758;2023-04-05T04:23:23;116.50;;;48.00;;
37903;SDS011;23738;50.422;18.758;2023-04-05T04:25:52;119.60;;;45.20;;
37903;SDS011;23738;50.422;18.758;2023-04-05T04:28:20;106.60;;;42.40;;
37903;SDS011;23738;50.422;18.758;2023-04-05T04:30:50;110.90;;;44.80;;
37903;SDS011;23738;50.422;18.758;2023-04-05T04:33:17;100.60;;;45.30;;
37903;SDS011;23738;50.422;18.758;2023-04-05T04:35:44;151.40;;;62.30;;
37903;SDS011;23738;50.422;18.758;2023-04-05T04:38:12;124.50;;;48.40;;
37903;SDS011;23738;50.422;18.758;2023-04-05T04:40:45;130.20;;;49.20;;
37903;SDS011;23738;50.422;18.758;2023-04-05T04:43:15;132.00;;;51.80;;
37903;SDS011;23738;50.422;18.758;2023-04-05T04:45:42;132.00;;;49.90;;
37903;SDS011;23738;50.422;18.758;2023-04-05T04:48:11;116.00;;;51.00;;
37903;SDS011;23738;50.422;18.758;2023-04-05T04:50:41;146.70;;;58.00;;
37903;SDS011;23738;50.422;18.758;2023-04-05T04:53:09;129.50;;;55.50;;
37903;SDS011;23738;50.422;18.758;2023-04-05T04:55:38;160.20;;;64.40;;
37903;SDS011;23738;50.422;18.758;2023-04-05T04:58:07;162.70;;;68.40;;
37903;SDS011;23738;50.422;18.758;2023-04-05T05:00:37;163.20;;;69.70;;
37903;SDS011;23738;50.422;18.758;2023-04-05T05:03:05;142.70;;;64.00;;
37903;SDS011;23738;50.422;18.758;2023-04-05T05:05:40;149.60;;;59.00;;
37903;SDS011;23738;50.422;18.758;2023-04-05T05:08:08;147.50;;;61.50;;
37903;SDS011;23738;50.422;18.758;2023-04-05T05:10:35;158.70;;;66.00;;
37903;SDS011;23738;50.422;18.758;2023-04-05T05:13:03;166.00;;;67.90;;
37903;SDS011;23738;50.422;18.758;2023-04-05T05:15:30;183.90;;;70.70;;
37903;SDS011;23738;50.422;18.758;2023-04-05T05:17:58;167.30;;;68.70;;
37903;SDS011;23738;50.422;18.758;2023-04-05T05:20:25;166.10;;;63.00;;
37903;SDS011;23738;50.422;18.758;2023-04-05T05:22:53;169.70;;;62.90;;
37903;SDS011;23738;50.422;18.758;2023-04-05T05:25:21;154.80;;;61.40;;
37903;SDS011;23738;50.422;18.758;2023-04-05T05:27:48;190.90;;;72.90;;
37903;SDS011;23738;50.422;18.758;2023-04-05T05:30:16;189.90;;;75.70;;
37903;SDS011;23738;50.422;18.758;2023-04-05T05:32:45;182.30;;;74.40;;
37903;SDS011;23738;50.422;18.758;2023-04-05T05:35:12;208.20;;;83.80;;
37903;SDS011;23738;50.422;18.758;2023-04-05T05:37:40;203.20;;;83.90;;
37903;SDS011;23738;50.422;18.758;2023-04-05T05:40:08;202.00;;;90.80;;
37903;SDS011;23738;50.422;18.758;2023-04-05T05:42:38;319.10;;;125.50;;
37903;SDS011;23738;50.422;18.758;2023-04-05T05:45:06;231.50;;;97.90;;
37903;SDS011;23738;50.422;18.758;2023-04-05T05:47:35;263.60;;;107.50;;
37903;SDS011;23738;50.422;18.758;2023-04-05T05:50:02;197.50;;;77.20;;
37903;SDS011;23738;50.422;18.758;2023-04-05T05:52:32;134.40;;;52.20;;
37903;SDS011;23738;50.422;18.758;2023-04-05T05:55:00;123.90;;;45.50;;
37903;SDS011;23738;50.422;18.758;2023-04-05T05:57:27;86.50;;;34.10;;
37903;SDS011;23738;50.422;18.758;2023-04-05T05:59:55;65.00;;;28.20;;
37903;SDS011;23738;50.422;18.758;2023-04-05T06:02:22;66.40;;;26.80;;
37903;SDS011;23738;50.422;18.758;2023-04-05T06:04:49;50.10;;;23.80;;
37903;SDS011;23738;50.422;18.758;2023-04-05T06:07:16;49.40;;;24.10;;
37903;SDS011;23738;50.422;18.758;2023-04-05T06:09:44;62.60;;;27.40;;
37903;SDS011;23738;50.422;18.758;2023-04-05T06:12:12;57.40;;;25.60;;
37903;SDS011;23738;50.422;18.758;2023-04-05T06:14:39;58.80;;;27.50;;
37903;SDS011;23738;50.422;18.758;2023-04-05T06:17:06;45.50;;;20.60;;
37903;SDS011;23738;50.422;18.758;2023-04-05T06:19:34;55.70;;;24.00;;
37903;SDS011;23738;50.422;18.758;2023-04-05T06:22:01;59.20;;;22.10;;
37903;SDS011;23738;50.422;18.758;2023-04-05T06:24:28;59.70;;;25.60;;
37903;SDS011;23738;50.422;18.758;2023-04-05T06:26:56;63.50;;;25.30;;
37903;SDS011;23738;50.422;18.758;2023-04-05T06:29:24;58.10;;;25.00;;
37903;SDS011;23738;50.422;18.758;2023-04-05T06:31:51;57.80;;;27.00;;
37903;SDS011;23738;50.422;18.758;2023-04-05T06:34:19;59.70;;;25.20;;
37903;SDS011;23738;50.422;18.758;2023-04-05T06:36:46;69.50;;;26.50;;
37903;SDS011;23738;50.422;18.758;2023-04-05T06:39:13;50.50;;;25.10;;
37903;SDS011;23738;50.422;18.758;2023-04-05T06:41:40;50.20;;;23.20;;
37903;SDS011;23738;50.422;18.758;2023-04-05T06:44:07;52.70;;;24.60;;
37903;SDS011;23738;50.422;18.758;2023-04-05T06:46:35;48.70;;;23.00;;
37903;SDS011;23738;50.422;18.758;2023-04-05T06:49:02;47.80;;;23.60;;
37903;SDS011;23738;50.422;18.758;2023-04-05T06:51:29;52.40;;;25.10;;
37903;SDS011;23738;50.422;18.758;2023-04-05T06:53:56;58.60;;;25.70;;
37903;SDS011;23738;50.422;18.758;2023-04-05T06:56:24;43.00;;;19.90;;
37903;SDS011;23738;50.422;18.758;2023-04-05T06:58:51;53.10;;;23.90;;
37903;SDS011;23738;50.422;18.758;2023-04-05T07:01:20;51.50;;;22.70;;
37903;SDS011;23738;50.422;18.758;2023-04-05T07:03:49;55.90;;;23.40;;
37903;SDS011;23738;50.422;18.758;2023-04-05T07:06:17;49.00;;;23.60;;
37903;SDS011;23738;50.422;18.758;2023-04-05T07:08:44;49.90;;;24.60;;
37903;SDS011;23738;50.422;18.758;2023-04-05T07:11:12;46.70;;;21.90;;
37903;SDS011;23738;50.422;18.758;2023-04-05T07:13:40;41.80;;;21.60;;
37903;SDS011;23738;50.422;18.758;2023-04-05T07:16:07;42.50;;;20.50;;
37903;SDS011;23738;50.422;18.758;2023-04-05T07:18:35;38.60;;;21.20;;
37903;SDS011;23738;50.422;18.758;2023-04-05T07:21:03;36.60;;;19.40;;
37903;SDS011;23738;50.422;18.758;2023-04-05T07:23:31;35.00;;;18.70;;
37903;SDS011;23738;50.422;18.758;2023-04-05T07:25:59;38.80;;;17.90;;
37903;SDS011;23738;50.422;18.758;2023-04-05T07:28:29;31.80;;;17.70;;
37903;SDS011;23738;50.422;18.758;2023-04-05T07:30:57;35.70;;;18.40;;
37903;SDS011;23738;50.422;18.758;2023-04-05T07:33:24;40.00;;;18.00;;
37903;SDS011;23738;50.422;18.758;2023-04-05T07:35:52;26.20;;;14.80;;
37903;SDS011;23738;50.422;18.758;2023-04-05T07:38:19;26.30;;;15.60;;
37903;SDS011;23738;50.422;18.758;2023-04-05T07:40:47;27.60;;;16.40;;
37903;SDS011;23738;50.422;18.758;2023-04-05T07:43:15;27.90;;;16.80;;
37903;SDS011;23738;50.422;18.758;2023-04-05T07:45:43;24.60;;;15.70;;
37903;SDS011;23738;50.422;18.758;2023-04-05T07:48:10;32.80;;;17.80;;
37903;SDS011;23738;50.422;18.758;2023-04-05T07:50:37;33.00;;;19.30;;
37903;SDS011;23738;50.422;18.758;2023-04-05T07:53:06;33.60;;;17.50;;
37903;SDS011;23738;50.422;18.758;2023-04-05T07:55:36;24.30;;;13.70;;
37903;SDS011;23738;50.422;18.758;2023-04-05T07:58:03;12.90;;;8.90;;
37903;SDS011;23738;50.422;18.758;2023-04-05T08:00:30;15.40;;;7.80;;
37903;SDS011;23738;50.422;18.758;2023-04-05T08:02:57;10.80;;;7.40;;
37903;SDS011;23738;50.422;18.758;2023-04-05T08:05:26;8.10;;;6.10;;
37903;SDS011;23738;50.422;18.758;2023-04-05T08:07:54;10.90;;;7.50;;
37903;SDS011;23738;50.422;18.758;2023-04-05T08:10:23;8.10;;;4.90;;
37903;SDS011;23738;50.422;18.758;2023-04-05T08:12:51;4.50;;;3.30;;
37903;SDS011;23738;50.422;18.758;2023-04-05T08:15:18;5.40;;;3.40;;
37903;SDS011;23738;50.422;18.758;2023-04-05T08:17:45;5.10;;;2.90;;
37903;SDS011;23738;50.422;18.758;2023-04-05T08:20:13;4.20;;;2.60;;
37903;SDS011;23738;50.422;18.758;2023-04-05T08:22:40;6.30;;;4.00;;
37903;SDS011;23738;50.422;18.758;2023-04-05T08:25:08;5.10;;;3.40;;
37903;SDS011;23738;50.422;18.758;2023-04-05T08:27:36;6.70;;;3.70;;
37903;SDS011;23738;50.422;18.758;2023-04-05T08:30:04;8.30;;;4.40;;
37903;SDS011;23738;50.422;18.758;2023-04-05T08:32:33;9.30;;;4.60;;
37903;SDS011;23738;50.422;18.758;2023-04-05T08:35:01;8.40;;;5.50;;
37903;SDS011;23738;50.422;18.758;2023-04-05T08:37:28;5.60;;;4.10;;
37903;SDS011;23738;50.422;18.758;2023-04-05T11:38:17;4.00;;;2.40;;
37903;SDS011;23738;50.422;18.758;2023-04-05T11:40:47;3.80;;;2.70;;
37903;SDS011;23738;50.422;18.758;2023-04-05T11:43:16;7.40;;;2.30;;
37903;SDS011;23738;50.422;18.758;2023-04-05T11:45:43;4.50;;;3.30;;
37903;SDS011;23738;50.422;18.758;2023-04-05T11:48:12;6.10;;;2.30;;
37903;SDS011;23738;50.422;18.758;2023-04-05T11:50:40;3.50;;;2.50;;
37903;SDS011;23738;50.422;18.758;2023-04-05T11:53:11;4.20;;;1.90;;
37903;SDS011;23738;50.422;18.758;2023-04-05T11:55:40;4.10;;;2.70;;
37903;SDS011;23738;50.422;18.758;2023-04-05T11:58:11;2.80;;;2.40;;
37903;SDS011;23738;50.422;18.758;2023-04-05T12:00:40;2.20;;;1.80;;
37903;SDS011;23738;50.422;18.758;2023-04-05T12:03:10;4.80;;;2.40;;
37903;SDS011;23738;50.422;18.758;2023-04-05T12:05:45;2.40;;;1.80;;
37903;SDS011;23738;50.422;18.758;2023-04-05T12:08:13;2.80;;;2.10;;
37903;SDS011;23738;50.422;18.758;2023-04-05T12:10:40;2.80;;;1.60;;
37903;SDS011;23738;50.422;18.758;2023-04-05T12:13:08;5.30;;;2.00;;
37903;SDS011;23738;50.422;18.758;2023-04-05T12:15:36;3.00;;;1.70;;
37903;SDS011;23738;50.422;18.758;2023-04-05T12:18:09;2.90;;;1.80;;
37903;SDS011;23738;50.422;18.758;2023-04-05T12:20:39;13.70;;;7.70;;
37903;SDS011;23738;50.422;18.758;2023-04-05T12:23:07;4.30;;;3.00;;
37903;SDS011;23738;50.422;18.758;2023-04-05T12:25:35;3.80;;;2.40;;
37903;SDS011;23738;50.422;18.758;2023-04-05T12:28:04;3.20;;;1.90;;
37903;SDS011;23738;50.422;18.758;2023-04-05T12:30:32;3.40;;;1.80;;
37903;SDS011;23738;50.422;18.758;2023-04-05T12:33:06;4.90;;;2.10;;
37903;SDS011;23738;50.422;18.758;2023-04-05T12:35:34;4.40;;;2.40;;
37903;SDS011;23738;50.422;18.758;2023-04-05T12:38:02;3.70;;;1.90;;
37903;SDS011;23738;50.422;18.758;2023-04-05T12:40:30;4.40;;;2.10;;
37903;SDS011;23738;50.422;18.758;2023-04-05T12:43:02;3.50;;;2.10;;
37903;SDS011;23738;50.422;18.758;2023-04-05T12:45:30;17.60;;;10.30;;
37903;SDS011;23738;50.422;18.758;2023-04-05T12:48:06;8.70;;;4.80;;
37903;SDS011;23738;50.422;18.758;2023-04-05T12:50:35;52.60;;;24.00;;
37903;SDS011;23738;50.422;18.758;2023-04-05T12:53:13;16.30;;;9.00;;
37903;SDS011;23738;50.422;18.758;2023-04-05T12:55:44;7.00;;;4.70;;
37903;SDS011;23738;50.422;18.758;2023-04-05T12:58:14;11.60;;;9.70;;
37903;SDS011;23738;50.422;18.758;2023-04-05T13:00:42;16.00;;;11.60;;
37903;SDS011;23738;50.422;18.758;2023-04-05T13:03:14;10.90;;;7.00;;
37903;SDS011;23738;50.422;18.758;2023-04-05T13:05:44;6.60;;;5.00;;
37903;SDS011;23738;50.422;18.758;2023-04-05T13:08:13;6.40;;;4.80;;
37903;SDS011;23738;50.422;18.758;2023-04-05T13:10:40;5.80;;;4.10;;
37903;SDS011;23738;50.422;18.758;2023-04-05T13:13:07;4.50;;;3.00;;
37903;SDS011;23738;50.422;18.758;2023-04-05T13:15:35;8.90;;;4.70;;
37903;SDS011;23738;50.422;18.758;2023-04-05T13:18:02;7.40;;;5.10;;
37903;SDS011;23738;50.422;18.758;2023-04-05T13:20:30;3.90;;;2.80;;
37903;SDS011;23738;50.422;18.758;2023-04-05T13:22:58;3.50;;;2.30;;
37903;SDS011;23738;50.422;18.758;2023-04-05T13:25:26;3.40;;;2.10;;
37903;SDS011;23738;50.422;18.758;2023-04-05T13:27:53;4.10;;;2.30;;
37903;SDS011;23738;50.422;18.758;2023-04-05T13:30:20;3.50;;;2.30;;
37903;SDS011;23738;50.422;18.758;2023-04-05T13:32:48;6.80;;;2.70;;
37903;SDS011;23738;50.422;18.758;2023-04-05T13:35:15;5.50;;;3.00;;
37903;SDS011;23738;50.422;18.758;2023-04-05T13:37:42;7.60;;;3.10;;
37903;SDS011;23738;50.422;18.758;2023-04-05T13:40:10;6.30;;;3.90;;
37903;SDS011;23738;50.422;18.758;2023-04-05T13:42:38;6.10;;;3.70;;
37903;SDS011;23738;50.422;18.758;2023-04-05T13:45:06;6.80;;;4.10;;
37903;SDS011;23738;50.422;18.758;2023-04-05T13:47:34;5.80;;;3.50;;
37903;SDS011;23738;50.422;18.758;2023-04-05T13:50:02;6.70;;;4.10;;
37903;SDS011;23738;50.422;18.758;2023-04-05T13:52:30;35.10;;;18.30;;
37903;SDS011;23738;50.422;18.758;2023-04-05T13:54:57;12.10;;;8.50;;
37903;SDS011;23738;50.422;18.758;2023-04-05T13:57:24;24.80;;;13.70;;
37903;SDS011;23738;50.422;18.758;2023-04-05T13:59:53;11.20;;;7.10;;
37903;SDS011;23738;50.422;18.758;2023-04-05T14:02:20;8.60;;;5.50;;
37903;SDS011;23738;50.422;18.758;2023-04-05T14:04:50;23.70;;;15.00;;
37903;SDS011;23738;50.422;18.758;2023-04-05T14:07:17;27.70;;;16.50;;
37903;SDS011;23738;50.422;18.758;2023-04-05T14:09:45;26.10;;;15.90;;
37903;SDS011;23738;50.422;18.758;2023-04-05T14:12:12;14.80;;;10.20;;
37903;SDS011;23738;50.422;18.758;2023-04-05T14:14:39;18.00;;;12.10;;
37903;SDS011;23738;50.422;18.758;2023-04-05T14:17:06;11.60;;;8.90;;
37903;SDS011;23738;50.422;18.758;2023-04-05T14:19:36;11.00;;;7.30;;
37903;SDS011;23738;50.422;18.758;2023-04-05T14:22:03;9.70;;;6.20;;
37903;SDS011;23738;50.422;18.758;2023-04-05T14:24:30;9.50;;;6.70;;
37903;SDS011;23738;50.422;18.758;2023-04-05T14:26:58;8.10;;;5.10;;
37903;SDS011;23738;50.422;18.758;2023-04-05T14:29:25;9.30;;;5.90;;
37903;SDS011;23738;50.422;18.758;2023-04-05T14:31:54;10.00;;;6.20;;
37903;SDS011;23738;50.422;18.758;2023-04-05T14:34:21;12.90;;;8.60;;
37903;SDS011;23738;50.422;18.758;2023-04-05T14:36:48;10.00;;;7.20;;
37903;SDS011;23738;50.422;18.758;2023-04-05T14:39:16;5.20;;;4.20;;
37903;SDS011;23738;50.422;18.758;2023-04-05T14:41:43;6.00;;;4.00;;
37903;SDS011;23738;50.422;18.758;2023-04-05T14:44:17;3.70;;;2.90;;
37903;SDS011;23738;50.422;18.758;2023-04-05T14:46:44;4.30;;;3.40;;
37903;SDS011;23738;50.422;18.758;2023-04-05T14:49:11;9.00;;;6.50;;
37903;SDS011;23738;50.422;18.758;2023-04-05T14:51:38;10.80;;;7.50;;
37903;SDS011;23738;50.422;18.758;2023-04-05T14:54:06;6.80;;;3.80;;
37903;SDS011;23738;50.422;18.758;2023-04-05T14:56:33;5.60;;;3.50;;
37903;SDS011;23738;50.422;18.758;2023-04-05T14:59:00;7.40;;;4.40;;
37903;SDS011;23738;50.422;18.758;2023-04-05T15:14:26;17.80;;;9.80;;
37903;SDS011;23738;50.422;18.758;2023-04-05T15:16:55;9.70;;;6.20;;
37903;SDS011;23738;50.422;18.758;2023-04-05T15:19:24;6.10;;;5.00;;
37903;SDS011;23738;50.422;18.758;2023-04-05T15:21:55;3.70;;;2.70;;
37903;SDS011;23738;50.422;18.758;2023-04-05T15:24:25;5.50;;;2.90;;
37903;SDS011;23738;50.422;18.758;2023-04-05T15:26:54;7.00;;;4.30;;
37903;SDS011;23738;50.422;18.758;2023-04-05T15:29:27;7.00;;;5.20;;
37903;SDS011;23738;50.422;18.758;2023-04-05T15:31:57;5.00;;;4.10;;
37903;SDS011;23738;50.422;18.758;2023-04-05T15:34:26;5.90;;;4.60;;
37903;SDS011;23738;50.422;18.758;2023-04-05T15:36:57;4.00;;;3.40;;
37903;SDS011;23738;50.422;18.758;2023-04-05T15:39:26;5.00;;;3.30;;
37903;SDS011;23738;50.422;18.758;2023-04-05T15:41:55;3.90;;;2.70;;
37903;SDS011;23738;50.422;18.758;2023-04-05T15:44:27;6.20;;;5.30;;
37903;SDS011;23738;50.422;18.758;2023-04-05T15:46:56;5.20;;;4.60;;
37903;SDS011;23738;50.422;18.758;2023-04-05T15:49:26;4.40;;;3.50;;
37903;SDS011;23738;50.422;18.758;2023-04-05T15:51:55;3.60;;;2.30;;
37903;SDS011;23738;50.422;18.758;2023-04-05T15:54:25;2.20;;;1.80;;
37903;SDS011;23738;50.422;18.758;2023-04-05T15:56:55;5.90;;;4.40;;
37903;SDS011;23738;50.422;18.758;2023-04-05T15:59:24;4.50;;;3.40;;
37903;SDS011;23738;50.422;18.758;2023-04-05T16:01:54;3.90;;;3.40;;
37903;SDS011;23738;50.422;18.758;2023-04-05T16:04:23;4.40;;;3.30;;
37903;SDS011;23738;50.422;18.758;2023-04-05T16:06:53;5.80;;;5.20;;
37903;SDS011;23738;50.422;18.758;2023-04-05T16:09:22;5.40;;;3.30;;
37903;SDS011;23738;50.422;18.758;2023-04-05T16:11:52;4.90;;;3.30;;
37903;SDS011;23738;50.422;18.758;2023-04-05T16:14:22;7.20;;;2.90;;
37903;SDS011;23738;50.422;18.758;2023-04-05T16:16:52;4.60;;;2.00;;
37903;SDS011;23738;50.422;18.758;2023-04-05T16:19:22;5.40;;;3.20;;
37903;SDS011;23738;50.422;18.758;2023-04-05T16:21:52;19.50;;;10.10;;
37903;SDS011;23738;50.422;18.758;2023-04-05T16:24:22;10.80;;;7.40;;
37903;SDS011;23738;50.422;18.758;2023-04-05T16:26:52;11.50;;;8.30;;
37903;SDS011;23738;50.422;18.758;2023-04-05T16:29:22;18.90;;;11.50;;
37903;SDS011;23738;50.422;18.758;2023-04-05T16:31:51;12.60;;;9.20;;
37903;SDS011;23738;50.422;18.758;2023-04-05T16:34:21;23.50;;;17.40;;
37903;SDS011;23738;50.422;18.758;2023-04-05T16:36:50;46.00;;;27.90;;
37903;SDS011;23738;50.422;18.758;2023-04-05T16:39:20;17.70;;;13.40;;
37903;SDS011;23738;50.422;18.758;2023-04-05T16:41:49;18.00;;;11.90;;
37903;SDS011;23738;50.422;18.758;2023-04-05T16:44:18;11.80;;;9.00;;
37903;SDS011;23738;50.422;18.758;2023-04-05T16:46:48;14.20;;;10.10;;
37903;SDS011;23738;50.422;18.758;2023-04-05T16:49:19;15.00;;;9.00;;
37903;SDS011;23738;50.422;18.758;2023-04-05T16:51:48;9.70;;;7.40;;
37903;SDS011;23738;50.422;18.758;2023-04-05T16:54:17;8.40;;;6.70;;
37903;SDS011;23738;50.422;18.758;2023-04-05T16:56:47;8.30;;;6.60;;
37903;SDS011;23738;50.422;18.758;2023-04-05T16:59:16;8.70;;;7.50;;
37903;SDS011;23738;50.422;18.758;2023-04-05T17:01:46;16.90;;;9.50;;
37903;SDS011;23738;50.422;18.758;2023-04-05T17:04:15;14.20;;;7.90;;
37903;SDS011;23738;50.422;18.758;2023-04-05T17:06:45;13.20;;;7.70;;
37903;SDS011;23738;50.422;18.758;2023-04-05T17:09:14;13.10;;;8.80;;
37903;SDS011;23738;50.422;18.758;2023-04-05T17:11:44;13.50;;;7.80;;
37903;SDS011;23738;50.422;18.758;2023-04-05T17:14:14;78.10;;;27.90;;
37903;SDS011;23738;50.422;18.758;2023-04-05T17:16:43;119.60;;;40.20;;
37903;SDS011;23738;50.422;18.758;2023-04-05T17:19:13;146.50;;;58.10;;
37903;SDS011;23738;50.422;18.758;2023-04-05T17:21:42;164.70;;;62.10;;
37903;SDS011;23738;50.422;18.758;2023-04-05T17:24:13;164.70;;;64.00;;
37903;SDS011;23738;50.422;18.758;2023-04-05T17:26:43;143.70;;;56.90;;
37903;SDS011;23738;50.422;18.758;2023-04-05T17:29:13;135.00;;;52.00;;
37903;SDS011;23738;50.422;18.758;2023-04-05T17:31:43;133.40;;;50.60;;
37903;SDS011;23738;50.422;18.758;2023-04-05T17:34:13;119.40;;;44.50;;